Time;durP1;ratioP1;P1;durP2;ratioP2;P2;SDS_P1;SDS_P2;PMS_P1;PMS_P2;Temp;Humidity;BMP_temperature;BMP_pressure;BME280_temperature;BME280_humidity;BME280_pressure;Samples;Min_cycle;Max_cycle;Signal;HPM_P1;HPM_P2
2022/12/08 00:01:08;;;;;;;28.10;15.70;;;3.70;99.90;;;;;;5073574;28;20078;-81
2022/12/08 00:03:34;;;;;;;26.30;16.48;;;3.80;99.90;;;;;;5073724;28;20028;-81
2022/12/08 00:11:30;;;;;;;25.30;16.42;;;3.90;99.90;;;;;;5073345;28;20031;-81
2022/12/08 00:13:57;;;;;;;25.45;15.73;;;4.00;99.90;;;;;;5072232;28;20033;-81
2022/12/08 00:16:22;;;;;;;25.88;15.80;;;4.00;99.90;;;;;;5074059;28;20073;-81
2022/12/08 00:18:48;;;;;;;23.67;16.35;;;4.10;99.90;;;;;;5073351;28;20020;-82
2022/12/08 00:21:14;;;;;;;28.27;16.08;;;4.10;99.90;;;;;;5073321;28;20386;-82
2022/12/08 00:23:39;;;;;;;29.00;17.10;;;4.10;99.90;;;;;;5073215;28;20509;-82
2022/12/08 00:26:06;;;;;;;25.55;16.40;;;4.10;99.90;;;;;;5073261;28;20448;-82
2022/12/08 00:28:33;;;;;;;32.58;16.55;;;4.10;99.90;;;;;;5081325;28;20051;-82
2022/12/08 00:30:59;;;;;;;24.48;15.82;;;4.20;99.90;;;;;;5078415;28;20029;-81
2022/12/08 00:33:27;;;;;;;25.23;16.20;;;4.20;99.90;;;;;;5071546;28;20509;-82
2022/12/08 00:35:52;;;;;;;26.75;16.48;;;4.30;99.90;;;;;;5073156;28;20103;-81
2022/12/08 00:38:18;;;;;;;24.85;15.80;;;4.30;99.90;;;;;;5073047;28;20120;-81
2022/12/08 00:40:47;;;;;;;26.10;16.42;;;4.40;99.90;;;;;;5071977;28;20090;-81
2022/12/08 00:43:13;;;;;;;27.10;17.33;;;4.40;99.90;;;;;;5086158;28;20020;-81
2022/12/08 00:45:39;;;;;;;28.83;17.98;;;4.50;99.90;;;;;;5076329;28;20059;-81
2022/12/08 00:48:05;;;;;;;27.25;16.80;;;4.50;99.90;;;;;;5073293;28;20060;-81
2022/12/08 00:50:31;;;;;;;26.63;18.05;;;4.50;99.90;;;;;;5072850;28;20524;-82
2022/12/08 00:52:57;;;;;;;26.00;16.98;;;4.60;99.90;;;;;;5071445;28;20032;-82
2022/12/08 00:55:22;;;;;;;29.48;18.35;;;4.60;99.90;;;;;;5072837;28;20023;-81
2022/12/08 00:57:48;;;;;;;30.20;19.00;;;4.50;99.90;;;;;;5072924;28;20615;-82
2022/12/08 01:00:14;;;;;;;28.60;18.10;;;4.50;99.90;;;;;;5071482;28;20025;-82
2022/12/08 01:02:40;;;;;;;27.45;17.40;;;4.60;99.90;;;;;;5079896;28;20116;-81
2022/12/08 01:05:06;;;;;;;33.45;19.88;;;4.60;99.90;;;;;;5065742;28;20571;-81
2022/12/08 01:07:32;;;;;;;31.15;19.23;;;4.70;99.90;;;;;;5066027;28;20502;-81
2022/12/08 01:09:58;;;;;;;27.65;18.00;;;4.70;99.90;;;;;;5065688;28;20021;-81
2022/12/08 01:12:24;;;;;;;30.52;18.52;;;4.70;99.90;;;;;;5072525;28;20024;-81
2022/12/08 01:14:50;;;;;;;34.10;19.98;;;4.70;99.90;;;;;;5070984;28;20024;-81
2022/12/08 01:17:16;;;;;;;31.48;18.80;;;4.80;99.90;;;;;;5072432;28;20406;-81
2022/12/08 01:19:41;;;;;;;28.60;18.23;;;4.80;99.90;;;;;;5072064;28;20025;-82
2022/12/08 01:22:07;;;;;;;30.50;18.35;;;4.90;99.90;;;;;;5070867;28;20505;-82
2022/12/08 01:24:33;;;;;;;28.83;18.38;;;4.90;99.90;;;;;;5072189;28;20055;-82
2022/12/08 01:26:58;;;;;;;30.80;19.45;;;4.90;99.90;;;;;;5072116;28;20048;-82
2022/12/08 01:29:26;;;;;;;31.92;19.25;;;4.90;99.90;;;;;;5071989;28;20025;-81
2022/12/08 01:31:52;;;;;;;32.42;19.40;;;4.90;99.90;;;;;;5070970;28;20056;-81
2022/12/08 01:34:17;;;;;;;31.33;19.00;;;5.00;99.90;;;;;;5070608;28;20063;-81
2022/12/08 01:36:43;;;;;;;31.00;18.70;;;5.10;99.90;;;;;;5070618;28;20157;-82
2022/12/08 01:39:18;;;;;;;30.20;18.70;;;5.10;99.90;;;;;;5071695;28;20017;-81
2022/12/08 01:41:46;;;;;;;30.67;19.55;;;5.10;99.90;;;;;;5071579;28;20059;-81
2022/12/08 01:44:12;;;;;;;30.90;19.85;;;5.00;99.90;;;;;;5071240;28;20547;-81
2022/12/08 01:46:39;;;;;;;31.08;19.23;;;5.10;99.90;;;;;;5072068;28;20052;-82
2022/12/08 01:49:13;;;;;;;29.30;18.98;;;5.10;99.90;;;;;;5072234;28;20578;-82
2022/12/08 01:51:56;;;;;;;29.42;19.63;;;5.00;99.90;;;;;;5071638;28;20113;-82
2022/12/08 01:54:25;;;;;;;32.00;18.42;;;5.00;99.90;;;;;;5071392;28;20020;-81
2022/12/08 01:56:56;;;;;;;34.30;19.55;;;5.00;99.90;;;;;;5070155;28;20028;-82
2022/12/08 01:59:23;;;;;;;28.88;19.13;;;5.10;99.90;;;;;;5083963;28;20017;-81
2022/12/08 02:01:50;;;;;;;32.72;18.80;;;5.00;99.90;;;;;;5071422;28;20025;-82
2022/12/08 02:04:15;;;;;;;32.28;19.42;;;5.00;99.90;;;;;;5071291;28;20028;-81
2022/12/08 02:06:45;;;;;;;32.45;18.83;;;5.00;99.90;;;;;;5071394;28;20588;-82
2022/12/08 02:09:12;;;;;;;32.53;20.60;;;5.10;99.90;;;;;;5071054;28;20098;-81
2022/12/08 02:11:37;;;;;;;31.02;19.67;;;5.10;99.90;;;;;;5070983;28;20029;-82
2022/12/08 02:14:07;;;;;;;30.10;18.48;;;5.20;99.90;;;;;;5069606;28;20043;-81
2022/12/08 02:16:47;;;;;;;33.95;20.15;;;5.20;99.90;;;;;;5071710;28;20078;-81
2022/12/08 02:19:25;;;;;;;31.77;19.30;;;5.20;99.90;;;;;;5079445;28;20025;-81
2022/12/08 02:22:06;;;;;;;30.40;19.55;;;5.10;99.90;;;;;;5071358;28;20024;-81
2022/12/08 02:24:54;;;;;;;31.63;18.47;;;5.10;99.90;;;;;;5071032;28;20032;-81
2022/12/08 02:27:28;;;;;;;31.27;18.50;;;5.10;99.90;;;;;;5070979;28;20321;-81
2022/12/08 02:30:10;;;;;;;31.23;19.58;;;5.10;99.90;;;;;;5071057;28;20570;-81
2022/12/08 02:33:04;;;;;;;32.00;19.48;;;5.20;99.90;;;;;;5070461;28;20036;-81
2022/12/08 02:35:29;;;;;;;32.42;19.73;;;5.20;99.90;;;;;;5082506;28;20128;-81
2022/12/08 02:38:16;;;;;;;33.38;19.90;;;5.20;99.90;;;;;;5073395;28;20054;-81
2022/12/08 02:41:06;;;;;;;31.48;19.17;;;5.10;99.90;;;;;;5070755;28;20012;-81
2022/12/08 02:43:43;;;;;;;32.05;19.67;;;5.10;99.90;;;;;;5075750;28;20055;-81
2022/12/08 02:46:12;;;;;;;32.35;19.90;;;5.20;99.90;;;;;;5070909;28;20048;-82
2022/12/08 02:48:38;;;;;;;32.08;18.95;;;5.10;99.90;;;;;;5070737;28;20024;-82
2022/12/08 02:51:04;;;;;;;31.55;19.23;;;5.20;99.90;;;;;;5070990;28;20505;-82
2022/12/08 02:53:33;;;;;;;33.17;19.58;;;5.20;99.90;;;;;;5070312;28;20043;-81
2022/12/08 02:56:18;;;;;;;29.42;19.08;;;5.20;99.90;;;;;;5075538;28;20027;-82
2022/12/08 02:58:56;;;;;;;31.05;19.42;;;5.10;99.90;;;;;;5074713;28;20025;-81
2022/12/08 03:01:52;;;;;;;30.27;18.80;;;5.10;99.90;;;;;;5069166;28;20027;-82
2022/12/08 03:04:40;;;;;;;31.23;19.25;;;5.10;99.90;;;;;;5073669;28;20104;-82
2022/12/08 03:07:13;;;;;;;28.67;18.80;;;5.10;99.90;;;;;;5075236;28;20032;-82
2022/12/08 03:09:49;;;;;;;31.13;19.95;;;5.00;99.90;;;;;;5074555;28;20076;-82
2022/12/08 03:12:28;;;;;;;30.77;19.58;;;5.00;99.90;;;;;;5061702;28;20063;-81
2022/12/08 03:14:58;;;;;;;31.70;20.65;;;5.10;99.90;;;;;;5072731;28;20033;-81
2022/12/08 03:17:27;;;;;;;30.85;19.20;;;5.20;99.90;;;;;;5073397;28;20032;-81
2022/12/08 03:19:55;;;;;;;27.98;17.90;;;5.30;99.90;;;;;;5074568;28;20025;-82
2022/12/08 03:22:24;;;;;;;32.35;20.10;;;5.00;99.90;;;;;;5074473;28;20024;-82
2022/12/08 03:24:51;;;;;;;31.08;19.60;;;5.10;99.90;;;;;;5072887;28;20032;-82
2022/12/08 03:27:21;;;;;;;31.83;19.88;;;5.20;99.90;;;;;;5074481;28;20045;-82
2022/12/08 03:29:49;;;;;;;30.35;19.33;;;5.20;99.90;;;;;;5074101;28;20036;-82
2022/12/08 03:32:33;;;;;;;31.15;18.52;;;5.20;99.90;;;;;;5074357;28;20029;-81
2022/12/08 03:35:02;;;;;;;30.50;19.90;;;5.20;99.90;;;;;;5072768;28;20570;-81
2022/12/08 03:37:28;;;;;;;30.08;19.45;;;5.30;99.90;;;;;;5072931;28;20024;-81
2022/12/08 03:39:54;;;;;;;33.72;20.45;;;5.30;99.90;;;;;;5074412;28;20029;-81
2022/12/08 03:42:20;;;;;;;34.80;19.70;;;5.30;99.90;;;;;;5073570;28;20016;-81
2022/12/08 03:44:46;;;;;;;32.65;21.23;;;5.30;99.90;;;;;;5073733;28;20490;-81
2022/12/08 03:47:12;;;;;;;33.53;20.60;;;5.20;99.90;;;;;;5073965;28;20489;-81
2022/12/08 03:49:37;;;;;;;35.25;20.60;;;5.10;99.90;;;;;;5073973;28;20029;-81
2022/12/08 03:52:03;;;;;;;33.03;20.17;;;5.20;99.90;;;;;;5073957;28;20027;-81
2022/12/08 03:54:29;;;;;;;32.40;19.42;;;5.20;99.90;;;;;;5081221;28;20077;-82
2022/12/08 03:56:55;;;;;;;32.45;19.48;;;5.20;99.90;;;;;;5079979;28;20501;-82
2022/12/08 03:59:20;;;;;;;32.63;19.90;;;5.20;99.90;;;;;;5071968;28;20078;-82
2022/12/08 04:01:46;;;;;;;34.90;20.58;;;5.20;99.90;;;;;;5073765;28;20071;-81
2022/12/08 04:04:12;;;;;;;31.70;20.67;;;5.20;99.90;;;;;;5060326;28;20386;-82
2022/12/08 04:06:37;;;;;;;30.67;19.52;;;5.30;99.90;;;;;;5073920;28;20027;-82
2022/12/08 04:09:03;;;;;;;32.15;19.35;;;5.30;99.90;;;;;;5073484;28;20031;-82
2022/12/08 04:11:29;;;;;;;30.70;20.02;;;5.30;99.90;;;;;;5073668;28;20060;-81
2022/12/08 04:13:55;;;;;;;29.88;19.75;;;5.30;99.90;;;;;;5072821;28;20780;-81
2022/12/08 04:16:23;;;;;;;28.70;19.15;;;5.30;99.90;;;;;;5071334;28;20046;-81
2022/12/08 04:18:50;;;;;;;32.40;19.35;;;5.10;99.90;;;;;;5060255;28;20075;-81
2022/12/08 04:21:16;;;;;;;31.73;19.55;;;5.20;99.90;;;;;;5072339;28;20074;-81
2022/12/08 04:23:42;;;;;;;28.73;18.67;;;5.20;99.90;;;;;;5073225;28;20021;-81
2022/12/08 04:26:08;;;;;;;31.33;19.17;;;5.10;99.90;;;;;;5073125;28;20548;-81
2022/12/08 04:28:34;;;;;;;30.50;18.92;;;5.10;99.90;;;;;;5073091;28;20099;-81
2022/12/08 04:31:00;;;;;;;30.60;18.77;;;5.10;99.90;;;;;;5073294;28;20058;-81
2022/12/08 04:33:26;;;;;;;27.73;18.17;;;5.10;99.90;;;;;;5072877;28;20032;-81
2022/12/08 04:35:51;;;;;;;29.08;18.38;;;5.10;99.90;;;;;;5072109;28;20086;-81
2022/12/08 04:38:17;;;;;;;27.10;17.45;;;5.10;99.90;;;;;;5073016;28;20021;-81
2022/12/08 04:40:43;;;;;;;28.02;17.65;;;5.20;99.90;;;;;;5072929;28;20024;-81
2022/12/08 04:43:08;;;;;;;27.17;18.25;;;5.10;99.90;;;;;;5077043;28;20490;-81
2022/12/08 04:45:34;;;;;;;26.27;17.25;;;5.20;99.90;;;;;;5072620;28;20037;-81
2022/12/08 04:48:01;;;;;;;29.02;17.85;;;5.20;99.90;;;;;;5065810;28;20049;-81
2022/12/08 04:50:26;;;;;;;28.35;19.20;;;5.20;99.90;;;;;;5066700;28;20032;-81
2022/12/08 04:52:52;;;;;;;30.17;17.80;;;5.20;99.90;;;;;;5072317;28;20027;-81
2022/12/08 04:55:18;;;;;;;29.10;18.10;;;5.20;99.90;;;;;;5072680;28;20032;-81
2022/12/08 04:57:44;;;;;;;29.00;17.88;;;5.10;99.90;;;;;;5072650;28;20051;-81
2022/12/08 05:00:11;;;;;;;28.77;17.38;;;5.00;99.90;;;;;;5072633;28;20485;-81
2022/12/08 05:02:36;;;;;;;30.73;18.08;;;4.90;99.90;;;;;;5071409;28;20025;-82
2022/12/08 05:05:05;;;;;;;29.65;18.20;;;4.90;99.90;;;;;;5071107;28;20466;-81
2022/12/08 05:07:30;;;;;;;29.70;17.10;;;4.90;99.90;;;;;;5072527;28;20104;-81
2022/12/08 05:09:56;;;;;;;26.27;16.65;;;4.90;99.90;;;;;;5072641;28;20104;-81
2022/12/08 05:12:22;;;;;;;29.70;17.65;;;4.90;99.90;;;;;;5072390;28;20048;-81
2022/12/08 05:14:48;;;;;;;25.30;16.48;;;4.90;99.90;;;;;;5071945;28;20032;-81
2022/12/08 05:17:15;;;;;;;28.17;17.50;;;4.80;99.90;;;;;;5072672;28;20414;-81
2022/12/08 05:19:40;;;;;;;27.67;17.73;;;4.80;99.90;;;;;;5072387;28;20020;-81
2022/12/08 05:22:06;;;;;;;25.80;16.50;;;4.70;99.90;;;;;;5072587;28;20443;-81
2022/12/08 05:24:32;;;;;;;27.23;16.80;;;4.70;99.90;;;;;;5072149;28;20078;-80
2022/12/08 05:26:57;;;;;;;28.60;18.00;;;4.80;99.90;;;;;;5071826;28;20528;-81
2022/12/08 05:29:23;;;;;;;28.02;17.55;;;4.80;99.90;;;;;;5071943;28;20418;-81
2022/12/08 05:31:49;;;;;;;26.95;17.05;;;4.80;99.90;;;;;;5072074;28;20020;-81
2022/12/08 05:34:14;;;;;;;26.05;17.25;;;4.80;99.90;;;;;;5071883;28;20181;-81
2022/12/08 05:36:40;;;;;;;25.83;16.33;;;4.80;99.90;;;;;;5072167;28;20031;-81
2022/12/08 05:39:06;;;;;;;26.15;17.23;;;4.80;99.90;;;;;;5071853;28;20073;-82
2022/12/08 05:41:31;;;;;;;27.98;16.38;;;4.80;99.90;;;;;;5071510;28;20099;-81
2022/12/08 05:43:57;;;;;;;23.27;15.85;;;4.70;99.90;;;;;;5076789;28;20028;-81
2022/12/08 05:46:23;;;;;;;23.88;16.13;;;4.70;99.90;;;;;;5071888;28;20043;-81
2022/12/08 05:48:49;;;;;;;26.15;15.70;;;4.70;99.90;;;;;;5070307;28;20028;-81
2022/12/08 05:51:20;;;;;;;23.83;15.43;;;4.70;99.90;;;;;;5078112;28;20028;-81
2022/12/08 05:53:47;;;;;;;24.88;15.73;;;4.70;99.90;;;;;;5088586;28;20039;-81
2022/12/08 05:56:13;;;;;;;27.38;16.55;;;4.70;99.90;;;;;;5071187;28;20025;-81
2022/12/08 05:58:38;;;;;;;25.45;15.48;;;4.70;99.90;;;;;;5071369;28;20390;-81
2022/12/08 06:01:04;;;;;;;21.45;15.25;;;4.80;99.90;;;;;;5069708;28;20409;-81
2022/12/08 06:03:31;;;;;;;21.08;14.82;;;4.80;99.90;;;;;;5071347;28;20093;-81
2022/12/08 06:05:57;;;;;;;24.50;14.57;;;4.80;99.90;;;;;;5071254;28;20537;-81
2022/12/08 06:08:23;;;;;;;23.02;14.90;;;4.90;99.90;;;;;;5060943;28;20100;-81
2022/12/08 06:10:48;;;;;;;23.27;15.45;;;4.90;99.90;;;;;;5071334;28;20099;-81
2022/12/08 06:13:14;;;;;;;21.95;14.85;;;4.90;99.90;;;;;;5069642;28;20059;-81
2022/12/08 06:15:40;;;;;;;24.23;15.77;;;4.90;99.90;;;;;;5070992;28;20050;-81
2022/12/08 06:18:06;;;;;;;23.50;14.88;;;5.00;99.90;;;;;;5071409;28;20259;-81
2022/12/08 06:20:33;;;;;;;21.52;14.18;;;5.10;99.90;;;;;;5071312;28;20025;-81
2022/12/08 06:22:58;;;;;;;22.38;14.73;;;5.10;99.90;;;;;;5069694;28;20087;-81
2022/12/08 06:25:25;;;;;;;20.73;14.52;;;5.20;99.90;;;;;;5070858;28;20017;-81
2022/12/08 06:27:50;;;;;;;21.00;14.13;;;5.30;99.90;;;;;;5071254;28;20020;-81
2022/12/08 06:30:17;;;;;;;21.95;14.43;;;5.30;99.90;;;;;;5070238;28;20584;-81
2022/12/08 06:32:43;;;;;;;21.95;14.98;;;5.30;99.90;;;;;;5082182;28;20485;-81
2022/12/08 06:35:09;;;;;;;19.95;13.63;;;5.30;99.90;;;;;;5069705;28;20074;-81
2022/12/08 06:37:34;;;;;;;21.70;13.07;;;5.40;99.90;;;;;;5068359;28;20635;-81
2022/12/08 06:40:00;;;;;;;22.48;13.68;;;5.60;99.90;;;;;;5071125;28;20021;-80
2022/12/08 06:42:45;;;;;;;19.60;12.80;;;5.60;99.90;;;;;;5084231;28;20080;-81
2022/12/08 06:45:13;;;;;;;18.35;12.48;;;5.70;99.90;;;;;;5071106;28;20127;-78
2022/12/08 06:47:38;;;;;;;20.73;11.82;;;5.60;99.90;;;;;;5074721;28;20464;-80
2022/12/08 06:50:08;;;;;;;17.20;11.82;;;5.60;99.90;;;;;;5089643;28;20085;-79
2022/12/08 06:52:34;;;;;;;17.40;12.00;;;5.60;99.90;;;;;;5072442;28;20025;-80
2022/12/08 06:55:00;;;;;;;18.90;12.18;;;5.70;99.90;;;;;;5070430;28;20398;-80
2022/12/08 06:57:25;;;;;;;18.92;11.75;;;5.70;99.90;;;;;;5069321;28;20405;-79
2022/12/08 06:59:51;;;;;;;15.15;10.57;;;5.80;99.90;;;;;;5070444;28;20024;-79
2022/12/08 07:02:17;;;;;;;17.27;11.50;;;5.80;99.90;;;;;;5070453;28;20021;-79
2022/12/08 07:04:43;;;;;;;15.95;10.85;;;5.90;99.90;;;;;;5056665;28;20485;-79
2022/12/08 07:07:09;;;;;;;13.65;9.95;;;6.00;99.90;;;;;;5068022;28;20025;-80
2022/12/08 07:09:35;;;;;;;16.80;9.50;;;6.10;99.90;;;;;;5089821;28;20056;-80
2022/12/08 07:12:02;;;;;;;14.68;9.98;;;6.10;99.90;;;;;;5069598;28;20021;-80
2022/12/08 07:14:28;;;;;;;15.88;9.63;;;6.10;99.90;;;;;;5070835;28;20036;-79
2022/12/08 07:16:54;;;;;;;15.30;9.48;;;6.20;99.90;;;;;;5079928;28;20575;-80
2022/12/08 07:19:20;;;;;;;14.63;9.57;;;6.20;99.90;;;;;;5069417;28;20064;-80
2022/12/08 07:21:45;;;;;;;13.75;8.98;;;6.30;99.90;;;;;;5068684;28;20492;-80
2022/12/08 07:24:12;;;;;;;14.88;9.38;;;6.30;99.90;;;;;;5067101;28;20094;-80
2022/12/08 07:26:38;;;;;;;14.52;9.57;;;6.30;99.90;;;;;;5066430;28;20048;-80
2022/12/08 07:29:04;;;;;;;15.20;9.15;;;6.30;99.90;;;;;;5068245;28;20099;-79
2022/12/08 07:31:30;;;;;;;12.70;8.32;;;6.30;99.90;;;;;;5068614;28;20033;-80
2022/12/08 07:33:56;;;;;;;12.38;8.07;;;6.30;99.90;;;;;;5066717;28;20572;-80
2022/12/08 07:36:23;;;;;;;11.95;8.65;;;6.30;99.90;;;;;;5069854;28;20025;-80
2022/12/08 07:38:49;;;;;;;13.52;8.45;;;6.30;99.90;;;;;;5069559;28;20028;-80
2022/12/08 07:41:18;;;;;;;14.00;7.40;;;6.40;99.90;;;;;;5073714;28;20036;-80
2022/12/08 07:43:44;;;;;;;11.85;7.35;;;6.40;99.90;;;;;;5071883;28;20020;-80
2022/12/08 07:46:14;;;;;;;11.10;7.53;;;6.40;99.90;;;;;;5087786;28;20081;-80
2022/12/08 07:48:41;;;;;;;12.45;8.50;;;6.40;99.90;;;;;;5077373;28;20024;-80
2022/12/08 07:51:07;;;;;;;13.65;9.20;;;6.40;99.90;;;;;;5071407;28;20308;-80
2022/12/08 07:53:32;;;;;;;14.93;9.80;;;6.40;99.90;;;;;;5071064;28;20082;-79
2022/12/08 07:55:58;;;;;;;15.05;8.70;;;6.30;99.90;;;;;;5072155;28;20029;-80
2022/12/08 07:58:24;;;;;;;14.63;9.40;;;6.40;99.90;;;;;;5073955;28;20023;-80
2022/12/08 08:00:51;;;;;;;14.52;9.50;;;6.40;99.90;;;;;;5073983;28;20077;-80
2022/12/08 08:03:17;;;;;;;15.65;9.70;;;6.40;99.90;;;;;;5074045;28;20038;-80
2022/12/08 08:05:43;;;;;;;14.48;9.48;;;6.40;99.90;;;;;;5073174;28;20035;-80
2022/12/08 08:08:09;;;;;;;14.55;9.43;;;6.50;99.90;;;;;;5071002;28;20024;-80
2022/12/08 08:10:35;;;;;;;14.88;9.20;;;6.50;99.90;;;;;;5071812;28;20052;-80
2022/12/08 08:13:01;;;;;;;13.68;9.43;;;6.50;99.90;;;;;;5072899;28;20090;-80
2022/12/08 08:15:27;;;;;;;12.55;8.23;;;6.50;99.90;;;;;;5073072;28;20509;-80
2022/12/08 08:17:53;;;;;;;13.85;8.10;;;6.60;99.90;;;;;;5080264;28;20494;-80
2022/12/08 08:20:20;;;;;;;13.27;7.60;;;6.60;99.90;;;;;;5074915;28;20031;-80
2022/12/08 08:22:47;;;;;;;12.18;7.47;;;6.70;99.90;;;;;;5068215;28;20024;-80
2022/12/08 08:25:13;;;;;;;12.18;7.57;;;6.70;99.90;;;;;;5072800;28;20020;-80
2022/12/08 08:27:39;;;;;;;15.27;9.55;;;6.70;99.90;;;;;;5072492;28;20089;-80
2022/12/08 08:30:10;;;;;;;12.90;7.97;;;6.70;99.90;;;;;;5088048;28;20028;-80
2022/12/08 08:32:36;;;;;;;14.75;8.45;;;6.70;99.90;;;;;;5072581;28;20039;-80
2022/12/08 08:35:03;;;;;;;12.40;8.73;;;6.70;99.90;;;;;;5085103;28;20030;-80
2022/12/08 08:37:29;;;;;;;13.52;9.00;;;6.80;99.90;;;;;;5079185;28;20082;-80
2022/12/08 08:39:55;;;;;;;14.32;9.00;;;6.90;99.90;;;;;;5091686;28;20532;-80
2022/12/08 08:42:21;;;;;;;16.08;9.25;;;7.00;99.90;;;;;;5085608;28;20051;-80
2022/12/08 08:44:47;;;;;;;14.00;8.70;;;7.00;99.90;;;;;;5070610;28;20598;-80
2022/12/08 08:47:13;;;;;;;14.38;9.60;;;7.00;99.90;;;;;;5071878;28;20028;-80
2022/12/08 08:49:38;;;;;;;15.57;9.77;;;7.00;99.90;;;;;;5066146;28;20565;-80
2022/12/08 08:52:05;;;;;;;13.50;9.35;;;7.00;99.90;;;;;;5091087;28;20441;-80
2022/12/08 08:54:31;;;;;;;16.50;10.13;;;7.00;99.90;;;;;;5092406;28;20058;-80
2022/12/08 08:56:57;;;;;;;14.15;9.82;;;7.10;99.90;;;;;;5092203;28;20028;-80
2022/12/08 08:59:24;;;;;;;16.95;10.38;;;7.00;99.90;;;;;;5084831;28;20024;-80
2022/12/08 09:01:49;;;;;;;14.40;9.52;;;7.10;99.90;;;;;;5091987;28;20028;-80
2022/12/08 09:04:15;;;;;;;14.40;9.10;;;7.10;99.90;;;;;;5081488;28;20032;-80
2022/12/08 09:06:42;;;;;;;13.70;9.10;;;7.20;99.90;;;;;;5070846;28;20484;-80
2022/12/08 09:09:08;;;;;;;12.35;8.90;;;7.20;99.90;;;;;;5068552;28;20538;-81
2022/12/08 09:11:34;;;;;;;12.70;8.35;;;7.20;99.90;;;;;;5073981;28;20029;-80
2022/12/08 09:14:00;;;;;;;12.15;8.10;;;7.20;99.90;;;;;;5071744;28;20514;-81
2022/12/08 09:16:26;;;;;;;11.43;7.88;;;7.20;99.90;;;;;;5071516;28;20533;-80
2022/12/08 09:18:52;;;;;;;12.13;8.48;;;7.20;99.90;;;;;;5078907;28;20490;-80
2022/12/08 09:21:24;;;;;;;13.27;8.25;;;7.20;99.90;;;;;;5091797;28;20051;-79
2022/12/08 09:23:52;;;;;;;13.80;8.95;;;7.30;99.90;;;;;;5088408;28;20048;-79
2022/12/08 09:26:21;;;;;;;14.43;9.32;;;7.30;99.90;;;;;;5073398;28;20041;-79
2022/12/08 09:28:48;;;;;;;14.93;9.57;;;7.30;99.90;;;;;;5079196;28;20095;-79
2022/12/08 09:31:16;;;;;;;13.68;9.30;;;7.30;99.90;;;;;;5074912;28;20668;-79
2022/12/08 09:33:42;;;;;;;15.00;9.50;;;7.30;99.90;;;;;;5077353;28;20021;-80
2022/12/08 09:36:09;;;;;;;15.48;10.05;;;7.30;99.90;;;;;;5066047;28;20025;-79
2022/12/08 09:38:35;;;;;;;15.15;8.88;;;7.40;99.90;;;;;;5087317;28;20032;-79
2022/12/08 09:41:03;;;;;;;14.27;8.73;;;7.40;99.90;;;;;;5070953;28;20032;-79
2022/12/08 09:43:37;;;;;;;20.67;10.45;;;7.40;99.90;;;;;;5070962;28;20042;-80
2022/12/08 09:46:12;;;;;;;15.15;8.90;;;7.40;99.90;;;;;;5070934;28;20115;-79
2022/12/08 09:48:55;;;;;;;12.85;8.93;;;7.50;99.90;;;;;;5071227;28;20112;-80
2022/12/08 09:51:31;;;;;;;11.13;8.20;;;7.50;99.90;;;;;;5059177;28;20059;-79
2022/12/08 09:54:02;;;;;;;13.05;8.70;;;7.50;99.90;;;;;;5071018;28;20020;-80
2022/12/08 09:56:34;;;;;;;14.25;9.23;;;7.50;99.90;;;;;;5071351;28;20440;-79
2022/12/08 09:59:02;;;;;;;14.43;9.80;;;7.60;99.90;;;;;;5070850;28;20052;-80
2022/12/08 10:01:32;;;;;;;13.55;8.63;;;7.60;99.90;;;;;;5069042;28;20017;-80
2022/12/08 10:03:59;;;;;;;12.38;8.40;;;7.50;99.90;;;;;;5089636;28;20107;-79
2022/12/08 10:06:56;;;;;;;15.75;9.65;;;7.60;99.90;;;;;;5091141;28;20044;-79
2022/12/08 10:09:40;;;;;;;11.93;8.82;;;7.60;99.90;;;;;;5052206;28;20040;-79
2022/12/08 10:12:14;;;;;;;14.45;9.30;;;7.70;99.90;;;;;;5087730;28;20028;-79
2022/12/08 10:15:00;;;;;;;11.75;8.07;;;7.70;99.90;;;;;;5077587;28;20032;-80
2022/12/08 10:17:33;;;;;;;16.23;10.23;;;7.70;99.90;;;;;;5059868;28;20497;-79
2022/12/08 10:20:11;;;;;;;12.82;8.60;;;7.70;99.90;;;;;;5069461;28;20024;-79
2022/12/08 10:22:36;;;;;;;12.82;9.25;;;7.80;99.90;;;;;;5085910;28;20020;-79
2022/12/08 10:25:35;;;;;;;13.07;9.20;;;7.80;99.90;;;;;;5070538;28;20520;-80
2022/12/08 10:28:01;;;;;;;11.02;7.72;;;7.90;99.90;;;;;;5083013;28;20517;-79
2022/12/08 10:30:26;;;;;;;13.77;8.85;;;7.90;99.90;;;;;;5070679;28;20039;-79
2022/12/08 10:32:53;;;;;;;11.05;7.90;;;8.00;99.90;;;;;;5069985;28;20025;-79
2022/12/08 10:35:24;;;;;;;11.02;7.60;;;8.10;99.90;;;;;;5070909;28;20104;-79
2022/12/08 10:37:58;;;;;;;11.83;8.07;;;8.10;99.90;;;;;;5070615;28;20021;-79
2022/12/08 10:40:27;;;;;;;12.07;7.53;;;8.10;99.90;;;;;;5070870;28;20302;-80
2022/12/08 10:42:56;;;;;;;12.55;8.38;;;8.10;99.90;;;;;;5069822;28;20032;-80
2022/12/08 10:45:42;;;;;;;10.30;7.55;;;8.10;99.90;;;;;;5070363;28;20043;-79
2022/12/08 10:48:28;;;;;;;11.20;7.75;;;8.10;99.90;;;;;;5070544;28;20027;-79
2022/12/08 10:50:58;;;;;;;10.52;7.15;;;8.10;99.90;;;;;;5070442;28;20092;-80
2022/12/08 10:53:29;;;;;;;11.20;7.90;;;8.20;99.90;;;;;;5069051;28;20145;-80
2022/12/08 10:56:01;;;;;;;;;;;8.20;99.90;;;;;;5071111;28;20013;-79
2022/12/08 10:58:35;;;;;;;13.70;8.10;;;8.20;99.90;;;;;;5071064;28;19905;-79
2022/12/08 11:01:15;;;;;;;12.50;8.02;;;8.20;99.90;;;;;;5086214;28;20033;-79
2022/12/08 11:03:46;;;;;;;13.68;8.98;;;8.10;99.90;;;;;;5070449;28;20029;-79
2022/12/08 11:06:27;;;;;;;10.93;8.38;;;8.20;99.90;;;;;;5070425;28;20098;-79
2022/12/08 11:08:55;;;;;;;12.15;8.18;;;8.20;99.90;;;;;;5064952;28;20032;-79
2022/12/08 11:11:36;;;;;;;10.95;7.32;;;8.30;99.90;;;;;;5090706;28;20082;-80
2022/12/08 11:14:06;;;;;;;9.57;6.97;;;8.40;99.90;;;;;;5090074;28;20140;-79
2022/12/08 11:16:32;;;;;;;10.98;7.45;;;8.40;99.90;;;;;;5089319;28;20032;-79
2022/12/08 11:19:02;;;;;;;10.40;7.07;;;8.30;99.90;;;;;;5090572;28;20024;-80
2022/12/08 11:21:35;;;;;;;8.98;7.18;;;8.40;99.90;;;;;;5088073;28;20025;-79
2022/12/08 11:24:15;;;;;;;9.60;6.78;;;8.40;99.90;;;;;;5070753;28;20029;-79
2022/12/08 11:27:01;;;;;;;10.88;8.10;;;8.40;99.90;;;;;;5074209;28;20044;-79
2022/12/08 11:29:34;;;;;;;8.48;6.68;;;8.40;99.90;;;;;;5074373;28;20051;-79
2022/12/08 11:32:06;;;;;;;8.95;6.35;;;8.40;99.90;;;;;;5074288;28;20112;-79
2022/12/08 11:34:40;;;;;;;9.35;7.38;;;8.50;99.90;;;;;;5073659;28;20033;-79
2022/12/08 11:37:14;;;;;;;10.10;6.57;;;8.50;99.90;;;;;;5074163;28;20128;-79
2022/12/08 11:39:48;;;;;;;8.93;5.88;;;8.50;99.90;;;;;;5074095;28;20074;-79
2022/12/08 11:42:17;;;;;;;9.90;7.30;;;8.50;99.90;;;;;;5073413;28;20012;-79
2022/12/08 11:45:04;;;;;;;8.98;6.60;;;8.40;99.90;;;;;;5073841;28;20558;-79
2022/12/08 11:47:36;;;;;;;9.55;7.10;;;8.50;99.90;;;;;;5072640;28;20024;-79
2022/12/08 11:50:14;;;;;;;9.82;6.45;;;8.50;99.90;;;;;;5089440;28;20082;-79
2022/12/08 11:52:47;;;;;;;7.05;5.53;;;8.50;99.90;;;;;;5073504;28;20029;-79
2022/12/08 11:55:35;;;;;;;9.98;6.03;;;8.60;99.90;;;;;;5073740;28;20201;-79
2022/12/08 11:58:18;;;;;;;10.18;6.60;;;8.60;99.90;;;;;;5088818;28;20025;-80
2022/12/08 12:00:44;;;;;;;9.70;6.47;;;8.60;99.90;;;;;;5073611;28;20103;-79
2022/12/08 12:03:39;;;;;;;11.07;7.00;;;8.50;99.90;;;;;;5089063;28;20113;-79
2022/12/08 12:06:37;;;;;;;8.57;6.40;;;8.50;99.90;;;;;;5071670;28;20123;-80
2022/12/08 12:09:15;;;;;;;10.15;6.95;;;8.60;99.90;;;;;;5068021;28;20059;-79
2022/12/08 12:12:15;;;;;;;10.32;6.90;;;8.50;99.90;;;;;;5091700;28;20028;-79
2022/12/08 12:15:12;;;;;;;8.13;6.22;;;8.50;99.90;;;;;;5093404;28;20020;-79
2022/12/08 12:17:38;;;;;;;7.85;6.38;;;8.50;99.90;;;;;;5093536;28;20512;-80
2022/12/08 12:20:24;;;;;;;8.27;6.20;;;8.50;99.90;;;;;;5093303;28;20054;-79
2022/12/08 12:23:16;;;;;;;8.93;6.60;;;8.50;99.90;;;;;;5086116;28;20034;-80
2022/12/08 12:25:57;;;;;;;8.63;6.43;;;8.50;99.90;;;;;;4997078;28;20125;-80
2022/12/08 12:28:26;;;;;;;11.88;7.22;;;8.50;99.90;;;;;;4991194;28;20042;-80
2022/12/08 12:31:04;;;;;;;10.82;7.18;;;8.50;99.90;;;;;;4975284;28;20100;-79
2022/12/08 12:33:31;;;;;;;11.18;7.80;;;8.60;99.90;;;;;;4990797;28;20049;-79
2022/12/08 12:36:01;;;;;;;8.82;6.57;;;8.60;99.90;;;;;;4990396;28;20050;-79
2022/12/08 12:41:20;;;;;;;9.90;6.53;;;8.50;99.90;;;;;;4991119;28;20033;-79
2022/12/08 12:44:08;;;;;;;10.38;7.20;;;8.60;99.90;;;;;;4990961;28;20089;-79
2022/12/08 12:46:47;;;;;;;8.40;6.60;;;8.60;99.90;;;;;;4991729;28;20069;-79
2022/12/08 12:49:42;;;;;;;7.78;5.85;;;8.60;99.90;;;;;;4991270;28;20034;-79
2022/12/08 12:52:19;;;;;;;8.05;6.18;;;8.60;99.90;;;;;;4990973;28;20030;-79
2022/12/08 12:54:48;;;;;;;9.38;6.35;;;8.70;99.90;;;;;;4990431;28;20032;-79
2022/12/08 12:57:15;;;;;;;8.55;5.93;;;8.60;99.90;;;;;;4974519;28;20035;-80
2022/12/08 12:59:46;;;;;;;8.85;6.43;;;8.70;99.90;;;;;;4964069;28;20019;-79
2022/12/08 13:02:23;;;;;;;8.43;6.25;;;8.60;99.90;;;;;;4999285;28;20040;-79
2022/12/08 13:05:29;;;;;;;12.52;6.70;;;8.50;99.90;;;;;;5072008;28;20029;-79